sensor_id;sensor_type;location;lat;lon;timestamp;temperature;humidity
21085;DHT22;34247;50.064;19.970;2023-04-24T00:00:32;30.50;20.70
21085;DHT22;34247;50.064;19.970;2023-04-24T00:01:37;30.50;20.80
21085;DHT22;34247;50.064;19.970;2023-04-24T00:02:44;30.50;20.90
21085;DHT22;34247;50.064;19.970;2023-04-24T00:03:50;30.50;21.00
21085;DHT22;34247;50.064;19.970;2023-04-24T00:04:57;30.50;21.00
21085;DHT22;34247;50.064;19.970;2023-04-24T00:06:06;30.50;21.00
21085;DHT22;34247;50.064;19.970;2023-04-24T00:07:15;30.40;21.00
21085;DHT22;34247;50.064;19.970;2023-04-24T00:08:20;30.40;21.10
21085;DHT22;34247;50.064;19.970;2023-04-24T00:09:26;30.40;21.10
21085;DHT22;34247;50.064;19.970;2023-04-24T00:10:31;30.40;21.30
21085;DHT22;34247;50.064;19.970;2023-04-24T00:11:38;30.40;21.40
21085;DHT22;34247;50.064;19.970;2023-04-24T00:12:43;30.40;21.40
21085;DHT22;34247;50.064;19.970;2023-04-24T00:13:47;30.40;21.60
21085;DHT22;34247;50.064;19.970;2023-04-24T00:14:51;30.30;21.60
21085;DHT22;34247;50.064;19.970;2023-04-24T00:15:56;30.40;21.60
21085;DHT22;34247;50.064;19.970;2023-04-24T00:17:03;30.30;21.70
21085;DHT22;34247;50.064;19.970;2023-04-24T00:18:07;30.30;21.90
21085;DHT22;34247;50.064;19.970;2023-04-24T00:19:12;30.30;21.90
21085;DHT22;34247;50.064;19.970;2023-04-24T00:20:17;30.20;21.80
21085;DHT22;34247;50.064;19.970;2023-04-24T00:21:22;30.20;21.90
21085;DHT22;34247;50.064;19.970;2023-04-24T00:22:29;30.20;22.00
21085;DHT22;34247;50.064;19.970;2023-04-24T00:23:35;30.20;22.00
21085;DHT22;34247;50.064;19.970;2023-04-24T00:24:40;30.20;22.10
21085;DHT22;34247;50.064;19.970;2023-04-24T00:25:46;30.20;22.10
21085;DHT22;34247;50.064;19.970;2023-04-24T00:26:50;30.20;22.20
21085;DHT22;34247;50.064;19.970;2023-04-24T00:27:54;30.20;22.20
21085;DHT22;34247;50.064;19.970;2023-04-24T00:28:57;30.10;22.20
21085;DHT22;34247;50.064;19.970;2023-04-24T00:30:04;30.10;22.20
21085;DHT22;34247;50.064;19.970;2023-04-24T00:31:09;30.10;22.30
21085;DHT22;34247;50.064;19.970;2023-04-24T00:32:16;30.10;22.80
21085;DHT22;34247;50.064;19.970;2023-04-24T00:33:22;30.10;22.30
21085;DHT22;34247;50.064;19.970;2023-04-24T00:34:32;30.10;22.30
21085;DHT22;34247;50.064;19.970;2023-04-24T00:35:36;30.10;22.30
21085;DHT22;34247;50.064;19.970;2023-04-24T00:36:41;30.10;22.40
21085;DHT22;34247;50.064;19.970;2023-04-24T00:37:47;30.10;22.50
21085;DHT22;34247;50.064;19.970;2023-04-24T00:38:53;30.00;22.50
21085;DHT22;34247;50.064;19.970;2023-04-24T00:39:59;30.00;22.50
21085;DHT22;34247;50.064;19.970;2023-04-24T00:41:04;30.00;22.50
21085;DHT22;34247;50.064;19.970;2023-04-24T00:42:08;30.00;22.60
21085;DHT22;34247;50.064;19.970;2023-04-24T00:43:17;30.00;22.60
21085;DHT22;34247;50.064;19.970;2023-04-24T00:44:26;30.00;22.70
21085;DHT22;34247;50.064;19.970;2023-04-24T00:45:35;30.00;22.70
21085;DHT22;34247;50.064;19.970;2023-04-24T00:46:42;30.00;22.70
21085;DHT22;34247;50.064;19.970;2023-04-24T00:47:48;30.00;22.80
21085;DHT22;34247;50.064;19.970;2023-04-24T00:48:56;29.90;22.70
21085;DHT22;34247;50.064;19.970;2023-04-24T00:50:04;29.90;22.70
21085;DHT22;34247;50.064;19.970;2023-04-24T00:51:10;29.80;22.70
21085;DHT22;34247;50.064;19.970;2023-04-24T00:52:15;29.80;22.70
21085;DHT22;34247;50.064;19.970;2023-04-24T00:53:21;29.80;22.80
21085;DHT22;34247;50.064;19.970;2023-04-24T00:54:26;29.80;22.80
21085;DHT22;34247;50.064;19.970;2023-04-24T00:55:32;29.80;22.90
21085;DHT22;34247;50.064;19.970;2023-04-24T00:56:39;29.80;22.90
21085;DHT22;34247;50.064;19.970;2023-04-24T00:57:44;29.80;23.00
21085;DHT22;34247;50.064;19.970;2023-04-24T00:58:49;29.70;22.90
21085;DHT22;34247;50.064;19.970;2023-04-24T00:59:56;29.80;23.00
21085;DHT22;34247;50.064;19.970;2023-04-24T01:01:02;29.70;22.90
21085;DHT22;34247;50.064;19.970;2023-04-24T01:02:37;29.70;23.00
21085;DHT22;34247;50.064;19.970;2023-04-24T01:03:44;29.70;23.00
21085;DHT22;34247;50.064;19.970;2023-04-24T01:04:50;29.70;23.10
21085;DHT22;34247;50.064;19.970;2023-04-24T01:05:55;29.70;23.10
21085;DHT22;34247;50.064;19.970;2023-04-24T01:07:00;29.70;23.20
21085;DHT22;34247;50.064;19.970;2023-04-24T01:08:06;29.70;23.20
21085;DHT22;34247;50.064;19.970;2023-04-24T01:09:11;29.70;23.20
21085;DHT22;34247;50.064;19.970;2023-04-24T01:10:16;29.70;23.20
21085;DHT22;34247;50.064;19.970;2023-04-24T01:11:22;29.70;23.30
21085;DHT22;34247;50.064;19.970;2023-04-24T01:12:25;29.60;23.20
21085;DHT22;34247;50.064;19.970;2023-04-24T01:13:31;29.60;23.20
21085;DHT22;34247;50.064;19.970;2023-04-24T01:14:37;29.60;23.20
21085;DHT22;34247;50.064;19.970;2023-04-24T01:15:42;29.60;23.20
21085;DHT22;34247;50.064;19.970;2023-04-24T01:16:46;29.60;23.20
21085;DHT22;34247;50.064;19.970;2023-04-24T01:17:51;29.60;23.30
21085;DHT22;34247;50.064;19.970;2023-04-24T01:19:00;29.60;23.40
21085;DHT22;34247;50.064;19.970;2023-04-24T01:20:05;29.60;23.40
21085;DHT22;34247;50.064;19.970;2023-04-24T01:21:14;29.60;23.50
21085;DHT22;34247;50.064;19.970;2023-04-24T01:22:27;29.60;23.50
21085;DHT22;34247;50.064;19.970;2023-04-24T01:24:05;29.50;23.50
21085;DHT22;34247;50.064;19.970;2023-04-24T01:25:28;29.50;23.50
21085;DHT22;34247;50.064;19.970;2023-04-24T01:27:54;29.40;23.60
21085;DHT22;34247;50.064;19.970;2023-04-24T01:29:01;29.50;23.70
21085;DHT22;34247;50.064;19.970;2023-04-24T01:30:07;29.40;23.70
21085;DHT22;34247;50.064;19.970;2023-04-24T01:31:12;29.40;23.80
21085;DHT22;34247;50.064;19.970;2023-04-24T01:32:26;29.40;23.90
21085;DHT22;34247;50.064;19.970;2023-04-24T01:33:36;29.40;23.80
21085;DHT22;34247;50.064;19.970;2023-04-24T01:34:45;29.40;23.90
21085;DHT22;34247;50.064;19.970;2023-04-24T01:35:50;29.30;23.80
21085;DHT22;34247;50.064;19.970;2023-04-24T01:36:54;29.30;23.70
21085;DHT22;34247;50.064;19.970;2023-04-24T01:37:59;29.30;23.90
21085;DHT22;34247;50.064;19.970;2023-04-24T01:39:04;29.30;23.90
21085;DHT22;34247;50.064;19.970;2023-04-24T01:40:09;29.30;23.90
21085;DHT22;34247;50.064;19.970;2023-04-24T01:41:13;29.30;24.10
21085;DHT22;34247;50.064;19.970;2023-04-24T01:42:18;29.20;24.10
21085;DHT22;34247;50.064;19.970;2023-04-24T01:43:24;29.20;24.10
21085;DHT22;34247;50.064;19.970;2023-04-24T01:44:28;29.20;24.10
21085;DHT22;34247;50.064;19.970;2023-04-24T01:45:32;29.20;24.10
21085;DHT22;34247;50.064;19.970;2023-04-24T01:46:36;29.20;24.10
21085;DHT22;34247;50.064;19.970;2023-04-24T01:47:42;29.20;24.20
21085;DHT22;34247;50.064;19.970;2023-04-24T01:48:53;29.20;24.20
21085;DHT22;34247;50.064;19.970;2023-04-24T01:49:58;29.10;24.20
21085;DHT22;34247;50.064;19.970;2023-04-24T01:51:03;29.20;24.20
21085;DHT22;34247;50.064;19.970;2023-04-24T01:52:07;29.10;24.30
21085;DHT22;34247;50.064;19.970;2023-04-24T01:53:11;29.10;24.40
21085;DHT22;34247;50.064;19.970;2023-04-24T01:54:15;29.10;24.20
21085;DHT22;34247;50.064;19.970;2023-04-24T01:55:19;29.10;24.30
21085;DHT22;34247;50.064;19.970;2023-04-24T01:56:29;29.10;24.30
21085;DHT22;34247;50.064;19.970;2023-04-24T01:57:36;29.10;24.30
21085;DHT22;34247;50.064;19.970;2023-04-24T01:58:41;29.10;24.30
21085;DHT22;34247;50.064;19.970;2023-04-24T01:59:45;29.00;24.40
21085;DHT22;34247;50.064;19.970;2023-04-24T02:00:49;29.00;24.40
21085;DHT22;34247;50.064;19.970;2023-04-24T02:01:53;29.00;24.50
21085;DHT22;34247;50.064;19.970;2023-04-24T02:02:58;29.00;24.40
21085;DHT22;34247;50.064;19.970;2023-04-24T03:09:01;28.20;25.20
21085;DHT22;34247;50.064;19.970;2023-04-24T03:10:10;28.10;25.30
21085;DHT22;34247;50.064;19.970;2023-04-24T03:11:15;28.10;25.40
21085;DHT22;34247;50.064;19.970;2023-04-24T03:12:29;28.10;25.50
21085;DHT22;34247;50.064;19.970;2023-04-24T03:13:36;28.10;25.40
21085;DHT22;34247;50.064;19.970;2023-04-24T03:14:41;28.10;25.40
21085;DHT22;34247;50.064;19.970;2023-04-24T03:15:50;28.00;25.50
21085;DHT22;34247;50.064;19.970;2023-04-24T03:17:06;28.10;25.60
21085;DHT22;34247;50.064;19.970;2023-04-24T03:18:17;28.00;25.50
21085;DHT22;34247;50.064;19.970;2023-04-24T03:19:22;28.10;25.50
21085;DHT22;34247;50.064;19.970;2023-04-24T03:20:32;28.00;25.50
21085;DHT22;34247;50.064;19.970;2023-04-24T03:21:36;28.00;25.60
21085;DHT22;34247;50.064;19.970;2023-04-24T03:22:48;28.00;25.60
21085;DHT22;34247;50.064;19.970;2023-04-24T03:24:08;28.00;25.60
21085;DHT22;34247;50.064;19.970;2023-04-24T03:25:19;28.00;25.60
21085;DHT22;34247;50.064;19.970;2023-04-24T03:26:55;28.00;25.60
21085;DHT22;34247;50.064;19.970;2023-04-24T03:28:14;28.00;25.60
21085;DHT22;34247;50.064;19.970;2023-04-24T03:29:32;28.00;25.60
21085;DHT22;34247;50.064;19.970;2023-04-24T03:30:38;28.00;25.50
21085;DHT22;34247;50.064;19.970;2023-04-24T03:31:49;28.00;25.50
21085;DHT22;34247;50.064;19.970;2023-04-24T03:33:01;28.00;25.60
21085;DHT22;34247;50.064;19.970;2023-04-24T03:34:06;28.00;25.60
21085;DHT22;34247;50.064;19.970;2023-04-24T03:35:10;28.00;25.60
21085;DHT22;34247;50.064;19.970;2023-04-24T03:36:14;28.00;25.70
21085;DHT22;34247;50.064;19.970;2023-04-24T03:37:18;28.00;25.70
21085;DHT22;34247;50.064;19.970;2023-04-24T03:38:22;28.00;25.70
21085;DHT22;34247;50.064;19.970;2023-04-24T03:39:26;28.00;25.70
21085;DHT22;34247;50.064;19.970;2023-04-24T03:40:30;27.90;25.60
21085;DHT22;34247;50.064;19.970;2023-04-24T03:41:40;28.00;25.70
21085;DHT22;34247;50.064;19.970;2023-04-24T03:42:44;27.90;25.60
21085;DHT22;34247;50.064;19.970;2023-04-24T03:43:48;27.90;25.60
21085;DHT22;34247;50.064;19.970;2023-04-24T03:44:54;27.90;25.60
21085;DHT22;34247;50.064;19.970;2023-04-24T03:45:58;27.90;25.70
21085;DHT22;34247;50.064;19.970;2023-04-24T03:47:02;27.90;25.70
21085;DHT22;34247;50.064;19.970;2023-04-24T03:48:20;27.90;25.70
21085;DHT22;34247;50.064;19.970;2023-04-24T03:49:31;27.90;25.70
21085;DHT22;34247;50.064;19.970;2023-04-24T03:50:41;27.90;25.70
21085;DHT22;34247;50.064;19.970;2023-04-24T03:52:11;27.90;25.70
21085;DHT22;34247;50.064;19.970;2023-04-24T03:53:20;27.90;25.70
21085;DHT22;34247;50.064;19.970;2023-04-24T03:54:34;27.90;25.70
21085;DHT22;34247;50.064;19.970;2023-04-24T03:55:41;27.90;25.70
21085;DHT22;34247;50.064;19.970;2023-04-24T03:56:46;27.90;25.70
21085;DHT22;34247;50.064;19.970;2023-04-24T03:58:03;27.90;25.70
21085;DHT22;34247;50.064;19.970;2023-04-24T03:59:10;27.90;25.50
21085;DHT22;34247;50.064;19.970;2023-04-24T04:00:18;27.90;25.60
21085;DHT22;34247;50.064;19.970;2023-04-24T04:01:39;27.90;25.70
21085;DHT22;34247;50.064;19.970;2023-04-24T04:02:54;27.80;25.50
21085;DHT22;34247;50.064;19.970;2023-04-24T04:04:18;27.80;25.50
21085;DHT22;34247;50.064;19.970;2023-04-24T04:05:46;27.80;25.60
21085;DHT22;34247;50.064;19.970;2023-04-24T04:07:04;27.80;25.40
21085;DHT22;34247;50.064;19.970;2023-04-24T04:08:13;27.80;25.30
21085;DHT22;34247;50.064;19.970;2023-04-24T04:09:26;27.80;25.20
21085;DHT22;34247;50.064;19.970;2023-04-24T04:10:30;27.80;24.90
21085;DHT22;34247;50.064;19.970;2023-04-24T04:11:34;27.80;24.80
21085;DHT22;34247;50.064;19.970;2023-04-24T04:12:40;27.80;24.70
21085;DHT22;34247;50.064;19.970;2023-04-24T04:13:45;27.80;24.70
21085;DHT22;34247;50.064;19.970;2023-04-24T04:14:51;27.80;24.60
21085;DHT22;34247;50.064;19.970;2023-04-24T04:15:55;27.80;24.70
21085;DHT22;34247;50.064;19.970;2023-04-24T04:17:03;27.80;24.70
21085;DHT22;34247;50.064;19.970;2023-04-24T04:18:20;27.80;24.70
21085;DHT22;34247;50.064;19.970;2023-04-24T04:19:40;27.80;24.70
21085;DHT22;34247;50.064;19.970;2023-04-24T04:20:57;27.80;24.70
21085;DHT22;34247;50.064;19.970;2023-04-24T04:22:06;27.80;24.80
21085;DHT22;34247;50.064;19.970;2023-04-24T04:23:11;27.80;24.60
21085;DHT22;34247;50.064;19.970;2023-04-24T04:24:19;27.80;24.40
21085;DHT22;34247;50.064;19.970;2023-04-24T04:25:45;27.80;24.40
21085;DHT22;34247;50.064;19.970;2023-04-24T04:26:52;27.80;24.40
21085;DHT22;34247;50.064;19.970;2023-04-24T04:28:00;27.90;24.30
21085;DHT22;34247;50.064;19.970;2023-04-24T04:29:05;27.90;24.20
21085;DHT22;34247;50.064;19.970;2023-04-24T04:30:13;27.90;24.20
21085;DHT22;34247;50.064;19.970;2023-04-24T04:32:57;27.90;24.10
21085;DHT22;34247;50.064;19.970;2023-04-24T04:34:17;28.00;24.00
21085;DHT22;34247;50.064;19.970;2023-04-24T04:35:30;28.00;24.00
21085;DHT22;34247;50.064;19.970;2023-04-24T04:36:43;28.00;24.00
21085;DHT22;34247;50.064;19.970;2023-04-24T04:37:53;28.00;24.00
21085;DHT22;34247;50.064;19.970;2023-04-24T04:39:00;28.00;23.90
21085;DHT22;34247;50.064;19.970;2023-04-24T04:40:04;28.00;23.80
21085;DHT22;34247;50.064;19.970;2023-04-24T04:41:15;28.10;23.70
21085;DHT22;34247;50.064;19.970;2023-04-24T04:42:34;28.10;23.50
21085;DHT22;34247;50.064;19.970;2023-04-24T04:43:52;28.10;23.50
21085;DHT22;34247;50.064;19.970;2023-04-24T04:45:09;28.10;23.50
21085;DHT22;34247;50.064;19.970;2023-04-24T04:46:15;28.10;23.50
21085;DHT22;34247;50.064;19.970;2023-04-24T04:47:31;28.20;23.50
21085;DHT22;34247;50.064;19.970;2023-04-24T04:48:39;28.20;23.30
21085;DHT22;34247;50.064;19.970;2023-04-24T04:49:43;28.20;23.30
21085;DHT22;34247;50.064;19.970;2023-04-24T04:50:48;28.20;23.30
21085;DHT22;34247;50.064;19.970;2023-04-24T04:51:52;28.20;23.20
21085;DHT22;34247;50.064;19.970;2023-04-24T04:52:57;28.20;23.20
21085;DHT22;34247;50.064;19.970;2023-04-24T04:54:05;28.20;23.30
21085;DHT22;34247;50.064;19.970;2023-04-24T04:55:08;28.30;23.30
21085;DHT22;34247;50.064;19.970;2023-04-24T04:56:12;28.30;23.20
21085;DHT22;34247;50.064;19.970;2023-04-24T04:57:17;28.30;23.20
21085;DHT22;34247;50.064;19.970;2023-04-24T04:58:23;28.30;23.10
21085;DHT22;34247;50.064;19.970;2023-04-24T04:59:28;28.30;23.00
21085;DHT22;34247;50.064;19.970;2023-04-24T05:00:32;28.40;23.10
21085;DHT22;34247;50.064;19.970;2023-04-24T05:01:39;28.40;23.10
21085;DHT22;34247;50.064;19.970;2023-04-24T05:03:10;28.40;23.10
21085;DHT22;34247;50.064;19.970;2023-04-24T05:04:24;28.40;23.10
21085;DHT22;34247;50.064;19.970;2023-04-24T05:05:29;28.40;23.00
21085;DHT22;34247;50.064;19.970;2023-04-24T05:06:33;28.50;23.10
21085;DHT22;34247;50.064;19.970;2023-04-24T05:07:38;28.50;23.20
21085;DHT22;34247;50.064;19.970;2023-04-24T05:08:41;28.50;23.10
21085;DHT22;34247;50.064;19.970;2023-04-24T05:09:46;28.50;23.00
21085;DHT22;34247;50.064;19.970;2023-04-24T05:10:51;28.50;22.80
21085;DHT22;34247;50.064;19.970;2023-04-24T05:11:56;28.60;22.90
21085;DHT22;34247;50.064;19.970;2023-04-24T05:13:00;28.60;22.90
21085;DHT22;34247;50.064;19.970;2023-04-24T05:14:05;28.60;23.00
21085;DHT22;34247;50.064;19.970;2023-04-24T05:15:11;28.60;23.00
21085;DHT22;34247;50.064;19.970;2023-04-24T05:16:16;28.60;23.00
21085;DHT22;34247;50.064;19.970;2023-04-24T05:17:21;28.70;22.90
21085;DHT22;34247;50.064;19.970;2023-04-24T05:18:25;28.70;22.70
21085;DHT22;34247;50.064;19.970;2023-04-24T05:19:29;28.70;22.60
21085;DHT22;34247;50.064;19.970;2023-04-24T05:20:37;28.70;22.60
21085;DHT22;34247;50.064;19.970;2023-04-24T05:21:42;28.80;22.60
21085;DHT22;34247;50.064;19.970;2023-04-24T05:22:45;28.80;22.70
21085;DHT22;34247;50.064;19.970;2023-04-24T05:23:49;28.90;22.60
21085;DHT22;34247;50.064;19.970;2023-04-24T05:24:55;29.00;22.60
21085;DHT22;34247;50.064;19.970;2023-04-24T05:26:01;29.10;22.60
21085;DHT22;34247;50.064;19.970;2023-04-24T05:27:09;29.20;22.60
21085;DHT22;34247;50.064;19.970;2023-04-24T05:28:13;29.30;22.40
21085;DHT22;34247;50.064;19.970;2023-04-24T05:29:17;29.50;22.20
21085;DHT22;34247;50.064;19.970;2023-04-24T05:30:26;29.60;22.20
21085;DHT22;34247;50.064;19.970;2023-04-24T05:31:31;29.80;22.10
21085;DHT22;34247;50.064;19.970;2023-04-24T05:32:35;30.00;21.60
21085;DHT22;34247;50.064;19.970;2023-04-24T05:33:39;30.20;21.60
21085;DHT22;34247;50.064;19.970;2023-04-24T05:34:47;30.30;21.40
21085;DHT22;34247;50.064;19.970;2023-04-24T05:35:51;30.60;20.90
21085;DHT22;34247;50.064;19.970;2023-04-24T05:36:55;30.80;21.00
21085;DHT22;34247;50.064;19.970;2023-04-24T05:37:59;30.90;20.80
21085;DHT22;34247;50.064;19.970;2023-04-24T05:39:02;31.10;21.00
21085;DHT22;34247;50.064;19.970;2023-04-24T05:40:10;31.30;20.40
21085;DHT22;34247;50.064;19.970;2023-04-24T05:41:15;31.50;20.30
21085;DHT22;34247;50.064;19.970;2023-04-24T05:42:19;31.70;20.20
21085;DHT22;34247;50.064;19.970;2023-04-24T05:43:23;31.90;20.20
21085;DHT22;34247;50.064;19.970;2023-04-24T05:44:28;32.00;20.10
21085;DHT22;34247;50.064;19.970;2023-04-24T05:45:32;32.30;19.80
21085;DHT22;34247;50.064;19.970;2023-04-24T05:46:38;32.50;19.30
21085;DHT22;34247;50.064;19.970;2023-04-24T05:47:42;32.60;19.40
21085;DHT22;34247;50.064;19.970;2023-04-24T05:48:55;32.80;19.20
21085;DHT22;34247;50.064;19.970;2023-04-24T05:50:00;33.00;19.50
21085;DHT22;34247;50.064;19.970;2023-04-24T05:51:04;33.20;19.00
21085;DHT22;34247;50.064;19.970;2023-04-24T05:52:08;33.40;18.90
21085;DHT22;34247;50.064;19.970;2023-04-24T05:53:12;33.50;18.40
21085;DHT22;34247;50.064;19.970;2023-04-24T05:54:16;33.70;18.50
21085;DHT22;34247;50.064;19.970;2023-04-24T05:55:20;33.80;18.30
21085;DHT22;34247;50.064;19.970;2023-04-24T05:56:24;34.00;18.20
21085;DHT22;34247;50.064;19.970;2023-04-24T05:57:28;34.10;18.30
21085;DHT22;34247;50.064;19.970;2023-04-24T05:58:33;34.20;18.20
21085;DHT22;34247;50.064;19.970;2023-04-24T05:59:37;34.40;18.00
21085;DHT22;34247;50.064;19.970;2023-04-24T06:01:01;34.50;17.80
21085;DHT22;34247;50.064;19.970;2023-04-24T06:02:06;34.70;17.70
21085;DHT22;34247;50.064;19.970;2023-04-24T06:03:11;34.80;17.60
21085;DHT22;34247;50.064;19.970;2023-04-24T06:04:27;34.90;17.00
21085;DHT22;34247;50.064;19.970;2023-04-24T06:05:31;35.00;17.30
21085;DHT22;34247;50.064;19.970;2023-04-24T06:06:36;35.10;17.50
21085;DHT22;34247;50.064;19.970;2023-04-24T06:07:40;35.20;17.20
21085;DHT22;34247;50.064;19.970;2023-04-24T06:08:44;35.30;17.20
21085;DHT22;34247;50.064;19.970;2023-04-24T06:09:48;35.40;17.10
21085;DHT22;34247;50.064;19.970;2023-04-24T06:10:53;35.50;17.00
21085;DHT22;34247;50.064;19.970;2023-04-24T06:11:56;35.60;16.90
21085;DHT22;34247;50.064;19.970;2023-04-24T06:13:02;35.70;17.00
21085;DHT22;34247;50.064;19.970;2023-04-24T06:14:06;35.70;16.90
21085;DHT22;34247;50.064;19.970;2023-04-24T06:15:10;35.80;16.80
21085;DHT22;34247;50.064;19.970;2023-04-24T06:16:14;35.90;16.90
21085;DHT22;34247;50.064;19.970;2023-04-24T06:17:21;35.90;16.80
21085;DHT22;34247;50.064;19.970;2023-04-24T06:18:25;36.00;16.70
21085;DHT22;34247;50.064;19.970;2023-04-24T06:19:30;36.00;16.50
21085;DHT22;34247;50.064;19.970;2023-04-24T06:20:34;36.10;16.50
21085;DHT22;34247;50.064;19.970;2023-04-24T06:21:38;36.10;16.50
21085;DHT22;34247;50.064;19.970;2023-04-24T06:22:45;36.20;16.50
21085;DHT22;34247;50.064;19.970;2023-04-24T06:23:49;36.20;16.50
21085;DHT22;34247;50.064;19.970;2023-04-24T06:24:53;36.30;16.60
21085;DHT22;34247;50.064;19.970;2023-04-24T06:25:58;36.30;16.40
21085;DHT22;34247;50.064;19.970;2023-04-24T06:27:02;36.40;16.30
21085;DHT22;34247;50.064;19.970;2023-04-24T06:28:07;36.40;16.20
21085;DHT22;34247;50.064;19.970;2023-04-24T06:29:11;36.50;16.70
21085;DHT22;34247;50.064;19.970;2023-04-24T06:30:15;36.60;16.20
21085;DHT22;34247;50.064;19.970;2023-04-24T06:31:20;36.70;16.20
21085;DHT22;34247;50.064;19.970;2023-04-24T06:32:24;36.70;16.10
21085;DHT22;34247;50.064;19.970;2023-04-24T06:33:29;36.80;15.80
21085;DHT22;34247;50.064;19.970;2023-04-24T06:34:35;36.90;15.90
21085;DHT22;34247;50.064;19.970;2023-04-24T06:35:40;37.00;15.80
21085;DHT22;34247;50.064;19.970;2023-04-24T06:36:44;37.10;15.70
21085;DHT22;34247;50.064;19.970;2023-04-24T06:37:49;37.20;15.60
21085;DHT22;34247;50.064;19.970;2023-04-24T06:38:52;37.30;15.60
21085;DHT22;34247;50.064;19.970;2023-04-24T06:39:57;37.50;15.70
21085;DHT22;34247;50.064;19.970;2023-04-24T06:41:01;37.60;15.60
21085;DHT22;34247;50.064;19.970;2023-04-24T06:42:07;37.70;15.60
21085;DHT22;34247;50.064;19.970;2023-04-24T06:43:15;37.80;15.40
21085;DHT22;34247;50.064;19.970;2023-04-24T06:44:19;38.00;15.50
21085;DHT22;34247;50.064;19.970;2023-04-24T06:45:23;38.10;15.20
21085;DHT22;34247;50.064;19.970;2023-04-24T06:46:27;38.30;15.10
21085;DHT22;34247;50.064;19.970;2023-04-24T06:47:31;38.40;15.00
21085;DHT22;34247;50.064;19.970;2023-04-24T06:48:35;38.60;15.00
21085;DHT22;34247;50.064;19.970;2023-04-24T06:49:39;38.70;14.90
21085;DHT22;34247;50.064;19.970;2023-04-24T06:50:43;38.80;14.70
21085;DHT22;34247;50.064;19.970;2023-04-24T06:51:48;39.00;14.50
21085;DHT22;34247;50.064;19.970;2023-04-24T06:52:52;39.20;14.30
21085;DHT22;34247;50.064;19.970;2023-04-24T06:53:57;39.40;14.20
21085;DHT22;34247;50.064;19.970;2023-04-24T06:55:02;39.50;14.30
21085;DHT22;34247;50.064;19.970;2023-04-24T06:56:07;39.70;14.20
21085;DHT22;34247;50.064;19.970;2023-04-24T06:57:14;39.90;14.00
21085;DHT22;34247;50.064;19.970;2023-04-24T06:58:22;40.00;13.70
21085;DHT22;34247;50.064;19.970;2023-04-24T06:59:28;40.20;13.70
21085;DHT22;34247;50.064;19.970;2023-04-24T07:00:33;40.30;13.70
21085;DHT22;34247;50.064;19.970;2023-04-24T07:01:40;40.50;13.60
21085;DHT22;34247;50.064;19.970;2023-04-24T07:02:44;40.70;13.50
21085;DHT22;34247;50.064;19.970;2023-04-24T07:03:48;40.80;13.40
21085;DHT22;34247;50.064;19.970;2023-04-24T07:04:52;41.00;13.30
21085;DHT22;34247;50.064;19.970;2023-04-24T07:05:57;41.10;13.20
21085;DHT22;34247;50.064;19.970;2023-04-24T07:07:01;41.20;13.00
21085;DHT22;34247;50.064;19.970;2023-04-24T07:08:06;41.40;13.00
21085;DHT22;34247;50.064;19.970;2023-04-24T07:09:26;41.50;12.90
21085;DHT22;34247;50.064;19.970;2023-04-24T07:10:30;41.70;12.70
21085;DHT22;34247;50.064;19.970;2023-04-24T07:11:35;41.80;12.50
21085;DHT22;34247;50.064;19.970;2023-04-24T07:12:40;42.00;12.50
21085;DHT22;34247;50.064;19.970;2023-04-24T07:13:45;42.10;12.20
21085;DHT22;34247;50.064;19.970;2023-04-24T07:14:50;42.30;12.20
21085;DHT22;34247;50.064;19.970;2023-04-24T07:15:55;42.40;12.10
21085;DHT22;34247;50.064;19.970;2023-04-24T07:16:59;42.60;11.70
21085;DHT22;34247;50.064;19.970;2023-04-24T07:18:03;42.80;11.80
21085;DHT22;34247;50.064;19.970;2023-04-24T07:19:12;42.90;11.90
21085;DHT22;34247;50.064;19.970;2023-04-24T07:20:17;43.10;11.90
21085;DHT22;34247;50.064;19.970;2023-04-24T07:21:21;43.30;11.70
21085;DHT22;34247;50.064;19.970;2023-04-24T07:22:29;43.50;11.80
21085;DHT22;34247;50.064;19.970;2023-04-24T07:23:33;43.60;11.60
21085;DHT22;34247;50.064;19.970;2023-04-24T07:24:37;43.80;11.60
21085;DHT22;34247;50.064;19.970;2023-04-24T07:25:41;43.90;11.40
21085;DHT22;34247;50.064;19.970;2023-04-24T07:26:45;44.10;11.30
21085;DHT22;34247;50.064;19.970;2023-04-24T07:27:50;44.20;11.20
21085;DHT22;34247;50.064;19.970;2023-04-24T07:28:53;44.40;11.10
21085;DHT22;34247;50.064;19.970;2023-04-24T07:29:58;44.60;11.10
21085;DHT22;34247;50.064;19.970;2023-04-24T07:31:02;44.70;11.20
21085;DHT22;34247;50.064;19.970;2023-04-24T07:32:07;44.90;10.90
21085;DHT22;34247;50.064;19.970;2023-04-24T07:33:11;45.00;10.90
21085;DHT22;34247;50.064;19.970;2023-04-24T07:34:19;45.20;10.60
21085;DHT22;34247;50.064;19.970;2023-04-24T07:35:24;45.40;10.50
21085;DHT22;34247;50.064;19.970;2023-04-24T07:36:31;45.50;10.60
21085;DHT22;34247;50.064;19.970;2023-04-24T07:37:35;45.60;10.50
21085;DHT22;34247;50.064;19.970;2023-04-24T07:38:40;45.80;10.50
21085;DHT22;34247;50.064;19.970;2023-04-24T07:39:44;45.90;10.30
21085;DHT22;34247;50.064;19.970;2023-04-24T07:40:49;46.00;10.20
21085;DHT22;34247;50.064;19.970;2023-04-24T07:41:52;46.10;10.20
21085;DHT22;34247;50.064;19.970;2023-04-24T07:42:56;46.30;10.20
21085;DHT22;34247;50.064;19.970;2023-04-24T07:44:00;46.30;9.90
21085;DHT22;34247;50.064;19.970;2023-04-24T07:45:05;46.50;10.00
21085;DHT22;34247;50.064;19.970;2023-04-24T07:46:10;46.60;9.90
21085;DHT22;34247;50.064;19.970;2023-04-24T07:47:14;46.60;9.60
21085;DHT22;34247;50.064;19.970;2023-04-24T07:48:19;46.70;9.70
21085;DHT22;34247;50.064;19.970;2023-04-24T07:49:26;46.80;9.70
21085;DHT22;34247;50.064;19.970;2023-04-24T07:50:34;46.80;9.70
21085;DHT22;34247;50.064;19.970;2023-04-24T07:51:40;46.80;9.70
21085;DHT22;34247;50.064;19.970;2023-04-24T07:52:46;46.90;9.70
21085;DHT22;34247;50.064;19.970;2023-04-24T07:53:51;47.00;9.70
21085;DHT22;34247;50.064;19.970;2023-04-24T07:54:55;47.00;9.60
21085;DHT22;34247;50.064;19.970;2023-04-24T07:56:04;47.20;9.70
21085;DHT22;34247;50.064;19.970;2023-04-24T07:57:08;47.30;9.40
21085;DHT22;34247;50.064;19.970;2023-04-24T07:58:13;47.40;9.30
21085;DHT22;34247;50.064;19.970;2023-04-24T07:59:20;47.50;9.20
21085;DHT22;34247;50.064;19.970;2023-04-24T08:00:28;47.60;9.30
21085;DHT22;34247;50.064;19.970;2023-04-24T08:01:32;47.60;9.40
21085;DHT22;34247;50.064;19.970;2023-04-24T08:02:38;47.60;9.30
21085;DHT22;34247;50.064;19.970;2023-04-24T08:03:48;47.60;9.20
21085;DHT22;34247;50.064;19.970;2023-04-24T08:04:53;47.70;9.30